Time;durP1;ratioP1;P1;durP2;ratioP2;P2;SDS_P1;SDS_P2;PMS_P1;PMS_P2;Temp;Humidity;BMP_temperature;BMP_pressure;BME280_temperature;BME280_humidity;BME280_pressure;Samples;Min_cycle;Max_cycle;Signal;HPM_P1;HPM_P2
2023/06/09 00:00:12;;;;;;;1.42;1.33;;;;;;;17.19;93.22;99281.00;5034741;28;20045;-63
2023/06/09 00:02:44;;;;;;;2.55;1.63;;;;;;;17.14;93.45;99275.16;5035849;28;20045;-63
2023/06/09 00:05:15;;;;;;;9.63;1.83;;;;;;;17.12;93.61;99274.34;5035880;28;20094;-63
2023/06/09 00:07:44;;;;;;;2.85;1.90;;;;;;;17.03;94.05;99258.34;5036392;28;20456;-63
2023/06/09 00:10:13;;;;;;;0.80;0.80;;;;;;;17.08;93.91;99256.47;5035790;28;20053;-63
2023/06/09 00:12:43;;;;;;;2.57;1.63;;;;;;;17.12;94.13;99264.03;5035833;28;20034;-63
2023/06/09 00:15:14;;;;;;;1.00;0.90;;;;;;;17.05;94.07;99261.72;5035677;28;20293;-63
2023/06/09 00:17:44;;;;;;;2.28;1.55;;;;;;;16.97;94.14;99261.97;5035702;28;20121;-63
2023/06/09 00:20:13;;;;;;;0.88;0.82;;;;;;;16.97;94.16;99261.13;5035914;28;20053;-63
2023/06/09 00:22:44;;;;;;;1.52;1.33;;;;;;;16.94;94.57;99259.47;5035407;28;20048;-63
2023/06/09 00:25:15;;;;;;;2.70;1.40;;;;;;;16.97;94.76;99259.38;5035286;28;20057;-63
2023/06/09 00:27:45;;;;;;;1.58;1.48;;;;;;;16.96;94.77;99262.88;5035150;28;20132;-63
2023/06/09 00:30:16;;;;;;;0.90;0.88;;;;;;;16.91;94.80;99254.44;5034796;28;20056;-63
2023/06/09 00:33:04;;;;;;;1.52;1.42;;;;;;;16.89;94.94;99258.81;5035245;28;20041;-63
2023/06/09 00:35:34;;;;;;;3.75;1.63;;;;;;;16.92;95.19;99258.69;5034496;28;20117;-63
2023/06/09 00:38:03;;;;;;;0.63;0.63;;;;;;;16.94;95.24;99259.47;5034091;28;20054;-63
2023/06/09 00:40:32;;;;;;;3.83;1.25;;;;;;;16.83;95.31;99247.84;5035524;28;20045;-63
2023/06/09 00:43:02;;;;;;;1.08;0.98;;;;;;;16.71;95.05;99238.78;5035064;28;20041;-63
2023/06/09 00:45:31;;;;;;;0.70;0.70;;;;;;;16.63;95.44;99243.34;5035222;28;20054;-63
2023/06/09 00:48:00;;;;;;;0.60;0.60;;;;;;;16.64;95.62;99253.63;5035035;28;20049;-63
2023/06/09 00:50:30;;;;;;;4.35;1.00;;;;;;;16.44;95.73;99226.75;5033822;28;20053;-63
2023/06/09 00:53:00;;;;;;;1.02;0.95;;;;;;;16.57;95.93;99239.25;5033780;28;20500;-63
2023/06/09 00:55:30;;;;;;;1.05;0.82;;;;;;;16.52;96.12;99241.13;5034068;28;20054;-63
2023/06/09 00:58:00;;;;;;;1.98;1.52;;;;;;;16.54;96.51;99247.06;5033977;28;20069;-63
2023/06/09 01:00:31;;;;;;;1.15;1.05;;;;;;;16.41;96.44;99237.16;5034834;28;20072;-63
2023/06/09 01:03:00;;;;;;;1.08;0.98;;;;;;;16.43;96.71;99240.53;5033529;28;20475;-63
2023/06/09 01:05:32;;;;;;;1.73;1.23;;;;;;;16.49;97.02;99240.31;5034803;28;20099;-63
2023/06/09 01:08:07;;;;;;;1.05;0.95;;;;;;;16.50;97.06;99231.72;5034674;28;20046;-63
2023/06/09 01:10:42;;;;;;;1.38;1.27;;;;;;;16.50;97.45;99226.56;5035019;28;20053;-63
2023/06/09 01:13:25;;;;;;;1.60;0.60;;;;;;;16.36;97.44;99208.13;5034514;28;20124;-63
2023/06/09 01:16:01;;;;;;;1.10;1.00;;;;;;;16.35;97.92;99211.59;5034605;28;20045;-63
2023/06/09 01:18:35;;;;;;;2.13;1.63;;;;;;;16.34;98.12;99209.91;5033304;28;20053;-62
2023/06/09 01:21:17;;;;;;;1.23;1.13;;;;;;;16.31;98.18;99207.44;5034443;28;20057;-63
2023/06/09 01:24:00;;;;;;;1.65;0.68;;;;;;;16.38;98.62;99212.34;5034288;28;20121;-63
2023/06/09 01:26:32;;;;;;;0.65;0.65;;;;;;;16.43;99.06;99219.94;5033151;28;20073;-62
2023/06/09 01:29:04;;;;;;;2.08;1.52;;;;;;;16.45;99.38;99224.13;5049663;28;20045;-63
2023/06/09 01:31:34;;;;;;;0.60;0.60;;;;;;;16.48;99.28;99223.19;5033280;28;20104;-63
2023/06/09 01:34:04;;;;;;;1.88;1.42;;;;;;;16.51;99.56;99221.38;5033043;28;20045;-63
2023/06/09 01:36:34;;;;;;;0.82;0.80;;;;;;;16.44;99.59;99224.16;5032989;28;20119;-63
2023/06/09 01:39:03;;;;;;;0.80;0.80;;;;;;;16.46;99.82;99219.84;5034090;28;20050;-63
2023/06/09 01:41:33;;;;;;;3.35;2.45;;;;;;;16.49;100.00;99227.44;5033171;28;20053;-63
2023/06/09 01:44:02;;;;;;;1.33;1.23;;;;;;;16.50;100.00;99226.56;5032759;28;20052;-62
2023/06/09 01:46:31;;;;;;;0.98;0.68;;;;;;;16.54;100.00;99233.31;5033120;28;20052;-63
2023/06/09 01:49:10;;;;;;;1.00;0.90;;;;;;;16.55;100.00;99227.28;5032905;28;20125;-63
2023/06/09 01:51:45;;;;;;;1.63;1.48;;;;;;;16.61;100.00;99234.81;5033115;28;20064;-63
2023/06/09 01:54:22;;;;;;;0.93;0.93;;;;;;;16.65;100.00;99226.13;5034121;28;20045;-63
2023/06/09 01:57:00;;;;;;;1.20;1.10;;;;;;;16.64;100.00;99227.00;5032725;28;20407;-63
2023/06/09 01:59:36;;;;;;;0.50;0.50;;;;;;;16.65;100.00;99221.78;5032644;28;20049;-63
2023/06/09 02:02:06;;;;;;;1.63;1.52;;;;;;;16.71;100.00;99225.91;5033816;28;20072;-63
2023/06/09 02:04:37;;;;;;;2.38;1.98;;;;;;;16.73;100.00;99239.56;5032519;28;20068;-63
2023/06/09 02:07:08;;;;;;;0.85;0.80;;;;;;;16.69;100.00;99236.28;5032616;28;20099;-63
2023/06/09 02:09:37;;;;;;;0.98;0.88;;;;;;;16.67;100.00;99239.78;5033970;28;20049;-63
2023/06/09 02:12:41;;;;;;;0.80;0.80;;;;;;;16.68;99.98;99236.31;5033633;28;20129;-63
2023/06/09 02:15:10;;;;;;;1.55;1.42;;;;;;;16.70;99.80;99234.50;5032459;28;20076;-63
2023/06/09 02:17:40;;;;;;;2.40;1.58;;;;;;;16.71;99.81;99236.22;5033594;28;20411;-63
2023/06/09 02:20:11;;;;;;;1.13;0.95;;;;;;;16.75;99.66;99232.63;5032468;28;20052;-63
2023/06/09 02:22:40;;;;;;;1.55;1.35;;;;;;;16.78;99.31;99222.22;5032886;28;20045;-63
2023/06/09 02:25:10;;;;;;;1.70;0.90;;;;;;;16.78;99.02;99235.13;5032418;28;20060;-63
2023/06/09 02:27:39;;;;;;;;;;;;;;;16.76;98.90;99218.88;5032717;28;20077;-63
2023/06/09 02:30:10;;;;;;;1.38;1.17;;;;;;;16.75;98.68;99222.31;5032329;28;19960;-63
2023/06/09 02:32:39;;;;;;;0.95;0.90;;;;;;;16.75;98.68;99222.31;5033263;28;20057;-63
2023/06/09 02:35:08;;;;;;;2.35;1.52;;;;;;;16.79;98.92;99220.50;5033404;28;20107;-63
2023/06/09 02:37:37;;;;;;;;;;;;;;;16.80;98.44;99215.28;5032601;28;20148;-63
2023/06/09 02:40:09;;;;;;;0.82;0.82;;;;;;;16.77;98.38;99225.72;5033336;28;19921;-63
2023/06/09 02:42:39;;;;;;;2.83;2.42;;;;;;;16.76;98.38;99226.59;5033365;28;20045;-63
2023/06/09 02:45:10;;;;;;;2.17;1.17;;;;;;;16.74;98.28;99226.66;5032062;28;20128;-63
2023/06/09 02:47:41;;;;;;;1.50;1.40;;;;;;;16.52;98.15;99199.06;5032230;28;20495;-63
2023/06/09 02:50:10;;;;;;;1.40;1.30;;;;;;;16.69;98.12;99222.53;5034758;28;20505;-63
2023/06/09 02:52:42;;;;;;;3.60;1.80;;;;;;;16.73;98.02;99229.25;5037554;28;20562;-63
2023/06/09 02:55:12;;;;;;;1.95;1.23;;;;;;;16.72;98.05;99232.75;5036038;28;20045;-63
2023/06/09 02:57:46;;;;;;;1.05;0.95;;;;;;;16.73;97.96;99234.41;5037356;28;20057;-62
2023/06/09 03:00:20;;;;;;;2.92;1.98;;;;;;;16.74;98.01;99233.53;5037106;28;20111;-63
2023/06/09 03:02:51;;;;;;;1.00;1.00;;;;;;;16.75;97.77;99230.06;5037303;28;20052;-63
2023/06/09 03:05:24;;;;;;;0.90;0.90;;;;;;;16.75;98.02;99227.47;5036957;28;20049;-63
2023/06/09 03:07:55;;;;;;;2.65;2.33;;;;;;;16.76;97.80;99229.16;5036837;28;20057;-63
2023/06/09 03:10:25;;;;;;;1.90;1.15;;;;;;;16.77;97.82;99235.19;5037113;28;20049;-63
2023/06/09 03:12:54;;;;;;;1.10;1.00;;;;;;;16.76;97.90;99242.06;5036956;28;20103;-63
2023/06/09 03:15:24;;;;;;;3.05;1.70;;;;;;;16.80;97.74;99241.06;5035674;28;20281;-63
2023/06/09 03:17:54;;;;;;;1.20;0.88;;;;;;;16.84;97.77;99246.97;5035580;28;20049;-63
2023/06/09 03:20:25;;;;;;;0.70;0.70;;;;;;;16.84;97.37;99271.00;5036730;28;20124;-63
2023/06/09 03:22:55;;;;;;;1.90;1.27;;;;;;;16.74;97.16;99285.09;5035505;28;20050;-63
2023/06/09 03:25:25;;;;;;;;;;;;;;;16.69;97.06;99274.06;5036992;28;20041;-63
2023/06/09 03:27:55;;;;;;;0.75;0.75;;;;;;;16.66;97.14;99284.47;5035374;28;20349;-63
2023/06/09 03:30:25;;;;;;;3.30;1.90;;;;;;;16.56;97.17;99283.06;5035414;28;20514;-63
2023/06/09 03:32:54;;;;;;;1.42;1.00;;;;;;;16.58;97.51;99284.72;5036158;28;20053;-62
2023/06/09 03:35:23;;;;;;;0.90;0.90;;;;;;;16.59;97.64;99293.28;5035498;28;20048;-62
2023/06/09 03:37:52;;;;;;;1.98;0.90;;;;;;;16.59;97.54;99303.59;5035148;28;20128;-62
2023/06/09 03:40:21;;;;;;;0.77;0.75;;;;;;;16.57;97.60;99301.09;5036345;28;20057;-62
2023/06/09 03:42:50;;;;;;;0.68;0.68;;;;;;;16.60;97.90;99308.69;5036399;28;20092;-62
2023/06/09 03:45:19;;;;;;;1.43;1.33;;;;;;;16.64;97.99;99312.03;5035328;28;20561;-61
2023/06/09 03:47:50;;;;;;;;;;;;;;;16.63;97.83;99318.06;5036506;28;20095;-62
2023/06/09 03:50:20;;;;;;;2.95;2.08;;;;;;;16.66;98.17;99312.81;5036588;28;20339;-61
2023/06/09 03:52:50;;;;;;;5.47;1.35;;;;;;;16.67;98.07;99314.53;5036339;28;20399;-62
2023/06/09 03:55:22;;;;;;;1.08;1.02;;;;;;;16.74;98.46;99313.44;5036370;28;20041;-62
2023/06/09 03:57:53;;;;;;;1.48;1.20;;;;;;;16.75;98.37;99312.53;5035971;28;20063;-62
2023/06/09 04:00:23;;;;;;;1.77;1.52;;;;;;;16.75;98.33;99310.78;5034253;28;20049;-62
2023/06/09 04:02:59;;;;;;;1.13;1.02;;;;;;;16.75;98.33;99315.09;5036227;28;20053;-62
2023/06/09 04:05:28;;;;;;;1.67;1.52;;;;;;;16.73;98.67;99309.16;5034650;28;20041;-62
2023/06/09 04:07:57;;;;;;;1.15;1.00;;;;;;;16.73;98.61;99306.59;5034549;28;20107;-62
2023/06/09 04:10:28;;;;;;;13.00;2.28;;;;;;;16.54;98.77;99282.28;5036135;28;20073;-61
2023/06/09 04:12:56;;;;;;;0.50;0.50;;;;;;;16.63;98.72;99307.75;5036065;28;20072;-61
2023/06/09 04:15:26;;;;;;;1.30;1.20;;;;;;;16.57;98.84;99295.94;5035761;28;20073;-61
2023/06/09 04:17:59;;;;;;;1.58;1.30;;;;;;;16.62;98.85;99303.50;5035972;28;20140;-61
2023/06/09 04:20:34;;;;;;;2.13;1.50;;;;;;;16.60;98.94;99302.72;5035601;28;20045;-61
2023/06/09 04:23:08;;;;;;;0.57;0.57;;;;;;;16.55;99.10;99291.72;5035595;28;20041;-61
2023/06/09 04:25:41;;;;;;;0.60;0.60;;;;;;;16.57;99.24;99289.91;5034384;28;20048;-61
2023/06/09 04:28:17;;;;;;;0.88;0.80;;;;;;;16.63;99.33;99310.34;5034277;28;20045;-61
2023/06/09 04:30:50;;;;;;;0.52;0.52;;;;;;;16.64;99.50;99307.72;5034247;28;20107;-61
2023/06/09 04:33:21;;;;;;;0.68;0.68;;;;;;;16.66;99.47;99305.09;5035394;28;20081;-61
2023/06/09 04:35:54;;;;;;;0.98;0.98;;;;;;;16.70;99.40;99306.66;5034149;28;20047;-62
2023/06/09 04:38:25;;;;;;;1.15;1.00;;;;;;;16.78;99.46;99304.72;5035207;28;20095;-62
2023/06/09 04:40:57;;;;;;;0.80;0.80;;;;;;;16.78;99.39;99294.41;5035428;28;20081;-62
2023/06/09 04:43:32;;;;;;;1.30;1.20;;;;;;;16.80;99.49;99295.19;5035199;28;20136;-62
2023/06/09 04:46:05;;;;;;;6.85;1.58;;;;;;;16.59;99.13;99262.38;5035355;28;20368;-62
2023/06/09 04:48:36;;;;;;;0.30;0.30;;;;;;;16.75;99.31;99284.19;5033945;28;20041;-61
2023/06/09 04:51:06;;;;;;;1.02;0.95;;;;;;;16.66;99.34;99263.84;5035052;28;20077;-62
2023/06/09 04:53:46;;;;;;;1.48;1.17;;;;;;;16.78;99.42;99284.09;5034989;28;20050;-61
2023/06/09 04:56:16;;;;;;;1.23;0.82;;;;;;;16.79;99.39;99280.63;5017297;28;20403;-62
2023/06/09 04:58:46;;;;;;;0.50;0.50;;;;;;;16.80;99.38;99265.97;5033823;28;20399;-62
2023/06/09 05:01:15;;;;;;;1.40;1.23;;;;;;;16.69;99.24;99238.84;5033698;28;20103;-62
2023/06/09 05:03:48;;;;;;;0.50;0.50;;;;;;;16.81;99.06;99255.66;5034772;28;20062;-62
2023/06/09 05:06:17;;;;;;;1.45;1.00;;;;;;;16.76;98.97;99260.09;5033483;28;20128;-62
2023/06/09 05:08:47;;;;;;;1.17;0.98;;;;;;;16.73;99.17;99265.34;5033791;28;20045;-62
2023/06/09 05:11:16;;;;;;;;;;;;;;;16.73;99.15;99258.47;5034091;28;20048;-62
2023/06/09 05:13:44;;;;;;;3.88;1.02;;;;;;;16.77;99.27;99241.19;5033427;28;19921;-62
2023/06/09 05:16:15;;;;;;;1.20;1.10;;;;;;;16.76;99.12;99244.63;5034807;28;20048;-61
2023/06/09 05:18:44;;;;;;;6.40;1.60;;;;;;;16.69;99.18;99245.72;5033391;28;20050;-62
2023/06/09 05:21:14;;;;;;;1.52;1.15;;;;;;;16.73;99.29;99265.34;5034475;28;20049;-62
2023/06/09 05:23:43;;;;;;;1.25;1.15;;;;;;;16.68;99.09;99267.22;5033232;28;20132;-63
2023/06/09 05:26:12;;;;;;;0.63;0.63;;;;;;;16.64;99.41;99266.50;5034376;28;20046;-61
2023/06/09 05:28:41;;;;;;;1.63;1.50;;;;;;;16.62;99.40;99268.28;5033195;28;20045;-62
2023/06/09 05:31:12;;;;;;;1.05;0.90;;;;;;;16.63;99.21;99275.09;5033070;28;20129;-62
2023/06/09 05:33:41;;;;;;;0.70;0.70;;;;;;;16.66;99.53;99275.00;5033035;28;20073;-62
2023/06/09 05:36:12;;;;;;;0.95;0.90;;;;;;;16.71;99.26;99272.28;5034523;28;20045;-61
2023/06/09 05:38:48;;;;;;;1.35;1.10;;;;;;;16.72;99.36;99266.25;5034520;28;20403;-62
2023/06/09 05:41:17;;;;;;;2.22;1.30;;;;;;;16.79;99.47;99262.59;5034119;28;20041;-62
2023/06/09 05:43:46;;;;;;;1.30;1.10;;;;;;;16.70;99.64;99224.19;5034091;28;20056;-62
2023/06/09 05:46:14;;;;;;;1.23;1.13;;;;;;;16.91;99.57;99244.13;5034002;28;20115;-62
2023/06/09 05:48:43;;;;;;;1.13;1.02;;;;;;;16.96;99.68;99255.16;5033988;28;20041;-62
2023/06/09 05:51:12;;;;;;;0.55;0.52;;;;;;;16.98;99.52;99265.41;5033778;28;20055;-62
2023/06/09 05:53:42;;;;;;;1.77;1.53;;;;;;;16.93;99.49;99262.97;5033886;28;20065;-62
2023/06/09 05:56:15;;;;;;;1.25;1.15;;;;;;;16.92;99.36;99266.44;5034231;28;20095;-63
2023/06/09 05:58:44;;;;;;;2.42;1.27;;;;;;;16.90;99.31;99273.38;5033945;28;20435;-62
2023/06/09 06:01:13;;;;;;;10.80;2.00;;;;;;;16.88;99.24;99274.31;5033695;28;20057;-62
2023/06/09 06:03:42;;;;;;;0.80;0.80;;;;;;;16.86;99.57;99270.97;5033726;28;20076;-62
2023/06/09 06:06:11;;;;;;;0.60;0.60;;;;;;;16.86;99.60;99271.81;5032619;28;20464;-63
2023/06/09 06:08:40;;;;;;;0.60;0.60;;;;;;;16.92;99.68;99276.75;5033800;28;20107;-63
2023/06/09 06:11:09;;;;;;;0.53;0.53;;;;;;;16.96;99.72;99278.34;5033623;28;20507;-63
2023/06/09 06:13:39;;;;;;;1.23;1.13;;;;;;;17.03;99.74;99274.66;5033688;28;20045;-63
2023/06/09 06:16:08;;;;;;;0.77;0.77;;;;;;;17.08;99.68;99267.63;5033482;28;20491;-63
2023/06/09 06:18:37;;;;;;;1.55;1.45;;;;;;;17.16;100.00;99273.34;5033525;28;20049;-63
2023/06/09 06:21:06;;;;;;;2.05;1.48;;;;;;;17.28;100.00;99274.66;5033593;28;20050;-63
2023/06/09 06:23:35;;;;;;;1.60;1.50;;;;;;;17.38;100.00;99276.03;5032821;28;20061;-63
2023/06/09 06:26:05;;;;;;;1.00;0.95;;;;;;;17.39;99.91;99278.59;5032542;28;20065;-63
2023/06/09 06:28:34;;;;;;;;;;;;;;;17.38;99.90;99278.63;5034071;28;20098;-63
2023/06/09 06:31:04;;;;;;;1.20;1.13;;;;;;;17.27;99.61;99284.16;5033521;28;20347;-62
2023/06/09 06:33:34;;;;;;;2.05;1.05;;;;;;;17.24;99.62;99289.41;5033323;28;20057;-63
2023/06/09 06:36:04;;;;;;;0.60;0.60;;;;;;;17.23;99.58;99286.88;5033403;28;20115;-63
2023/06/09 06:38:33;;;;;;;1.35;1.25;;;;;;;17.33;99.69;99294.25;5033693;28;20041;-62
2023/06/09 06:41:03;;;;;;;0.93;0.90;;;;;;;17.44;99.76;99286.97;5033636;28;20049;-63
2023/06/09 06:43:32;;;;;;;0.50;0.50;;;;;;;17.49;99.43;99284.25;5033907;28;20049;-63
2023/06/09 06:46:09;;;;;;;1.20;1.10;;;;;;;17.51;99.29;99287.63;5031935;28;20042;-63
2023/06/09 06:48:40;;;;;;;0.90;0.90;;;;;;;17.57;99.29;99276.25;5033561;28;20042;-63
2023/06/09 06:51:09;;;;;;;0.82;0.82;;;;;;;17.57;99.09;99271.09;5033361;28;20111;-63
2023/06/09 06:53:39;;;;;;;2.40;1.85;;;;;;;17.65;98.89;99284.59;5033265;28;20517;-62
2023/06/09 06:56:09;;;;;;;2.85;2.10;;;;;;;17.73;98.88;99292.91;5031526;28;20048;-63
2023/06/09 06:58:41;;;;;;;0.60;0.57;;;;;;;17.71;98.60;99286.94;5032980;28;20045;-62
2023/06/09 07:01:12;;;;;;;1.95;1.13;;;;;;;17.70;98.35;99288.69;5033430;28;20057;-63
2023/06/09 07:03:43;;;;;;;0.70;0.70;;;;;;;17.78;98.33;99291.00;5031420;28;20499;-62
2023/06/09 07:06:12;;;;;;;1.23;1.13;;;;;;;17.91;98.19;99293.06;5042242;28;20045;-63
2023/06/09 07:08:41;;;;;;;2.17;0.97;;;;;;;17.93;98.03;99286.09;5052857;28;20049;-62
2023/06/09 07:11:10;;;;;;;1.53;1.13;;;;;;;17.99;97.51;99295.38;5053059;28;20041;-63
2023/06/09 07:13:39;;;;;;;1.63;1.50;;;;;;;18.04;97.49;99288.31;5052774;28;20486;-63
2023/06/09 07:16:08;;;;;;;1.17;0.90;;;;;;;18.15;97.39;99291.31;5052955;28;20437;-63
2023/06/09 07:18:38;;;;;;;2.30;1.73;;;;;;;18.28;96.85;99302.91;5053078;28;20064;-63
2023/06/09 07:21:07;;;;;;;0.77;0.77;;;;;;;18.24;96.29;99298.72;5053009;28;20045;-63
2023/06/09 07:23:36;;;;;;;0.70;0.70;;;;;;;18.15;95.85;99293.06;5052801;28;20056;-63
2023/06/09 07:26:04;;;;;;;0.70;0.70;;;;;;;18.15;95.64;99288.75;5052398;28;20049;-63
2023/06/09 07:28:33;;;;;;;0.83;0.83;;;;;;;18.29;95.35;99295.97;5052994;28;20041;-63
2023/06/09 07:31:02;;;;;;;4.13;1.15;;;;;;;18.39;94.93;99295.56;5052837;28;20123;-63
2023/06/09 07:33:33;;;;;;;1.93;1.83;;;;;;;18.43;94.46;99291.94;5052491;28;20049;-63
2023/06/09 07:36:03;;;;;;;1.42;1.33;;;;;;;18.56;94.23;99303.53;5054952;28;20044;-63
2023/06/09 07:38:32;;;;;;;2.35;1.33;;;;;;;18.73;93.82;99306.31;5056589;28;20040;-64
2023/06/09 07:41:01;;;;;;;0.57;0.57;;;;;;;18.79;93.30;99304.38;5056532;28;20094;-64
2023/06/09 07:43:30;;;;;;;1.50;0.82;;;;;;;18.86;93.03;99300.66;5055870;28;20282;-64
2023/06/09 07:45:58;;;;;;;1.93;1.17;;;;;;;18.98;92.76;99300.16;5055177;28;20072;-65
2023/06/09 07:48:27;;;;;;;1.60;1.23;;;;;;;19.04;92.12;99299.88;5055897;28;20123;-64
2023/06/09 07:50:57;;;;;;;0.90;0.70;;;;;;;19.05;91.26;99301.56;5055877;28;20059;-64
2023/06/09 07:53:31;;;;;;;1.10;0.93;;;;;;;19.03;91.08;99298.19;5055788;28;20306;-64
2023/06/09 07:56:00;;;;;;;1.45;1.35;;;;;;;19.07;90.65;99289.41;5056077;28;20044;-64
2023/06/09 07:58:28;;;;;;;0.75;0.68;;;;;;;19.10;90.39;99291.88;5038441;28;20053;-64
2023/06/09 08:00:58;;;;;;;0.60;0.60;;;;;;;19.14;89.96;99293.44;5056047;28;20052;-64
2023/06/09 08:03:28;;;;;;;1.08;0.98;;;;;;;19.12;89.69;99300.41;5055716;28;20482;-64
2023/06/09 08:05:58;;;;;;;1.38;1.13;;;;;;;19.15;89.44;99292.50;5071037;28;20053;-63
2023/06/09 08:08:28;;;;;;;2.38;1.38;;;;;;;19.24;89.30;99302.50;5054492;28;20049;-63
2023/06/09 08:10:59;;;;;;;0.80;0.80;;;;;;;19.27;89.37;99298.03;5055625;28;20521;-64
2023/06/09 08:13:29;;;;;;;0.70;0.70;;;;;;;19.37;89.37;99308.84;5055440;28;20052;-63
2023/06/09 08:15:59;;;;;;;0.50;0.50;;;;;;;19.47;89.34;99302.38;5055718;28;20057;-63
2023/06/09 08:18:28;;;;;;;1.40;1.30;;;;;;;19.48;88.95;99309.25;5054132;28;20045;-64
2023/06/09 08:20:58;;;;;;;0.88;0.85;;;;;;;19.32;88.53;99282.28;5055432;28;20049;-64
2023/06/09 08:23:27;;;;;;;3.80;1.97;;;;;;;19.50;88.52;99307.44;5055750;28;20421;-63
2023/06/09 08:25:56;;;;;;;2.10;0.83;;;;;;;19.63;88.20;99300.81;5055257;28;20048;-64
2023/06/09 08:28:26;;;;;;;1.25;1.15;;;;;;;19.64;87.95;99275.75;5055254;28;20049;-63
2023/06/09 08:30:55;;;;;;;1.50;1.17;;;;;;;19.89;87.71;99300.50;5055530;28;20095;-63
2023/06/09 08:33:26;;;;;;;1.42;1.17;;;;;;;19.99;87.87;99301.78;5054911;28;20107;-63
2023/06/09 08:35:55;;;;;;;0.95;0.90;;;;;;;19.99;87.55;99294.00;5054907;28;20064;-63
2023/06/09 08:38:24;;;;;;;2.37;1.10;;;;;;;20.07;87.15;99298.84;5054769;28;20060;-63
2023/06/09 08:40:55;;;;;;;4.32;0.68;;;;;;;20.08;86.84;99303.94;5054998;28;20293;-63
2023/06/09 08:43:25;;;;;;;0.98;0.85;;;;;;;20.06;86.46;99303.19;5055089;28;20540;-63
2023/06/09 08:45:56;;;;;;;0.63;0.63;;;;;;;20.08;86.12;99309.13;5055111;28;20048;-63
2023/06/09 08:48:28;;;;;;;0.73;0.70;;;;;;;20.18;85.92;99303.56;5054016;28;20068;-63
2023/06/09 08:50:58;;;;;;;1.90;1.08;;;;;;;20.30;85.24;99305.63;5054926;28;20045;-63
2023/06/09 08:53:30;;;;;;;0.68;0.68;;;;;;;20.40;85.11;99306.84;5054953;28;20534;-63
2023/06/09 08:55:59;;;;;;;0.85;0.75;;;;;;;20.41;84.27;99300.75;5055033;28;20483;-63
2023/06/09 08:58:29;;;;;;;0.70;0.70;;;;;;;20.22;83.14;99299.91;5054579;28;20087;-63
2023/06/09 09:00:59;;;;;;;0.90;0.90;;;;;;;20.13;83.00;99305.50;5054998;28;20056;-63
2023/06/09 09:03:32;;;;;;;0.50;0.50;;;;;;;20.04;82.53;99312.78;5053381;28;20049;-63
2023/06/09 09:06:02;;;;;;;0.70;0.70;;;;;;;19.93;82.21;99317.63;5070037;28;20080;-63
2023/06/09 09:08:30;;;;;;;0.73;0.73;;;;;;;19.89;82.40;99308.28;5054485;28;20040;-63
2023/06/09 09:10:59;;;;;;;0.50;0.50;;;;;;;19.88;82.21;99306.59;5054599;28;20445;-63
2023/06/09 09:13:30;;;;;;;0.60;0.60;;;;;;;19.96;82.32;99299.31;5053995;28;20049;-64
2023/06/09 09:16:01;;;;;;;1.02;0.93;;;;;;;20.01;82.38;99296.53;5054141;28;20398;-63
2023/06/09 09:18:32;;;;;;;0.85;0.85;;;;;;;20.08;82.43;99299.69;5054698;28;20132;-63
2023/06/09 09:21:02;;;;;;;1.75;1.08;;;;;;;20.14;82.45;99296.81;5054695;28;20045;-63
2023/06/09 09:23:31;;;;;;;0.50;0.50;;;;;;;20.17;82.07;99296.69;5054628;28;20040;-63
2023/06/09 09:26:02;;;;;;;1.20;1.05;;;;;;;20.16;81.72;99285.47;5054333;28;20147;-63
2023/06/09 09:28:39;;;;;;;0.77;0.77;;;;;;;20.22;81.28;99289.53;5054556;28;20131;-63
2023/06/09 09:31:11;;;;;;;0.70;0.70;;;;;;;20.11;81.03;99289.19;5054532;28;20395;-63
2023/06/09 09:33:47;;;;;;;1.60;1.42;;;;;;;20.05;80.79;99283.38;5053918;28;20128;-63
2023/06/09 09:36:19;;;;;;;0.50;0.50;;;;;;;19.97;80.75;99256.97;5054160;28;20060;-62
2023/06/09 09:38:49;;;;;;;0.60;0.60;;;;;;;20.06;80.50;99264.31;5054295;28;20037;-63
2023/06/09 09:41:17;;;;;;;0.68;0.68;;;;;;;20.23;80.33;99281.72;5053958;28;20044;-63
2023/06/09 09:43:47;;;;;;;0.40;0.40;;;;;;;20.29;79.87;99281.44;5053953;28;20052;-63
2023/06/09 09:46:20;;;;;;;0.60;0.55;;;;;;;20.28;79.95;99278.91;5054045;28;20521;-63
2023/06/09 09:48:49;;;;;;;3.17;1.55;;;;;;;20.36;79.78;99279.41;5039654;28;20051;-63
2023/06/09 09:51:20;;;;;;;0.40;0.40;;;;;;;20.42;79.46;99279.13;5033885;28;20495;-63
2023/06/09 09:53:51;;;;;;;0.82;0.82;;;;;;;20.49;79.76;99275.31;5034207;28;20049;-63
2023/06/09 09:56:24;;;;;;;0.50;0.50;;;;;;;20.53;79.40;99279.44;5033719;28;20049;-63
2023/06/09 09:58:54;;;;;;;0.75;0.75;;;;;;;20.58;78.78;99282.66;5033181;28;20056;-63
2023/06/09 10:01:25;;;;;;;0.63;0.63;;;;;;;20.63;78.83;99291.06;5033870;28;20045;-63
2023/06/09 10:03:56;;;;;;;0.70;0.70;;;;;;;20.67;78.59;99295.19;5032719;28;20073;-63
2023/06/09 10:06:30;;;;;;;0.82;0.70;;;;;;;20.66;77.92;99293.50;5033765;28;20037;-63
2023/06/09 10:08:59;;;;;;;1.33;1.23;;;;;;;20.62;77.83;99285.03;5033543;28;20052;-63
2023/06/09 10:11:32;;;;;;;0.50;0.50;;;;;;;20.70;77.69;99289.84;5033206;28;20037;-63
2023/06/09 10:14:01;;;;;;;0.68;0.68;;;;;;;20.77;78.05;99283.47;5033326;28;20041;-63
2023/06/09 10:16:33;;;;;;;0.88;0.80;;;;;;;20.86;77.81;99283.00;5033846;28;20049;-63
2023/06/09 10:19:03;;;;;;;1.55;1.13;;;;;;;20.86;77.11;99293.38;5033573;28;20099;-63
2023/06/09 10:21:35;;;;;;;2.10;1.02;;;;;;;20.98;76.99;99279.81;5033380;28;20069;-63
2023/06/09 10:24:06;;;;;;;1.05;0.82;;;;;;;21.09;76.96;99277.53;5033481;28;20053;-63
2023/06/09 10:26:37;;;;;;;0.73;0.70;;;;;;;21.14;76.98;99270.38;5033698;28;20373;-63
2023/06/09 10:29:09;;;;;;;0.63;0.63;;;;;;;21.16;77.11;99268.53;5033270;28;20045;-63
2023/06/09 10:31:43;;;;;;;0.70;0.70;;;;;;;21.13;76.67;99271.31;5033300;28;20140;-63
2023/06/09 10:34:16;;;;;;;1.58;0.93;;;;;;;21.13;76.29;99267.84;5033674;28;20051;-63
2023/06/09 10:36:45;;;;;;;2.28;1.42;;;;;;;21.19;76.79;99268.38;5033429;28;20050;-63
2023/06/09 10:39:18;;;;;;;0.80;0.70;;;;;;;21.18;76.96;99269.31;5033366;28;20072;-63
2023/06/09 10:41:56;;;;;;;0.88;0.88;;;;;;;21.14;77.26;99261.75;5033705;28;20466;-63
2023/06/09 10:44:36;;;;;;;0.95;0.82;;;;;;;21.05;77.51;99263.03;5033400;28;20056;-63
2023/06/09 10:47:08;;;;;;;0.95;0.88;;;;;;;21.06;78.14;99262.16;5033622;28;20049;-63
2023/06/09 10:49:42;;;;;;;1.20;1.02;;;;;;;21.05;78.48;99260.44;5033329;28;20053;-63
2023/06/09 10:52:37;;;;;;;0.52;0.52;;;;;;;21.12;79.14;99260.97;5033240;28;20049;-63
2023/06/09 10:55:13;;;;;;;1.38;1.23;;;;;;;21.11;79.21;99252.38;5033050;28;20073;-63
2023/06/09 10:57:43;;;;;;;0.90;0.90;;;;;;;21.11;79.53;99254.13;5032339;28;20042;-62
2023/06/09 11:00:12;;;;;;;0.40;0.40;;;;;;;21.05;80.04;99247.47;5033148;28;20124;-63
2023/06/09 11:02:46;;;;;;;0.75;0.75;;;;;;;21.12;80.47;99246.25;5033541;28;20046;-63
2023/06/09 11:05:17;;;;;;;0.52;0.52;;;;;;;21.07;80.36;99237.84;5032983;28;20511;-63
2023/06/09 11:08:07;;;;;;;0.75;0.73;;;;;;;21.05;81.58;99239.69;5033342;28;20057;-63
2023/06/09 11:10:38;;;;;;;2.25;0.60;;;;;;;20.99;82.53;99242.56;5034710;28;20076;-63
2023/06/09 11:13:29;;;;;;;0.90;0.75;;;;;;;20.88;83.38;99231.88;5036825;28;20053;-63
2023/06/09 11:16:03;;;;;;;0.50;0.50;;;;;;;20.84;84.44;99232.94;5036726;28;20061;-63
2023/06/09 11:18:34;;;;;;;0.90;0.70;;;;;;;20.73;84.71;99210.13;5036620;28;20050;-62
2023/06/09 11:21:19;;;;;;;1.23;1.13;;;;;;;20.82;85.38;99229.59;5036769;28;20561;-63
2023/06/09 11:24:01;;;;;;;0.60;0.60;;;;;;;20.95;85.83;99217.69;5036695;28;20045;-63
2023/06/09 11:26:33;;;;;;;0.50;0.50;;;;;;;21.07;85.50;99219.69;5036629;28;20095;-63
2023/06/09 11:29:04;;;;;;;1.08;0.80;;;;;;;21.08;84.78;99220.53;5036704;28;20064;-63
2023/06/09 11:31:48;;;;;;;0.50;0.50;;;;;;;21.49;84.48;99221.00;5036348;28;20045;-63
2023/06/09 11:34:39;;;;;;;0.70;0.70;;;;;;;21.94;83.84;99223.78;5036826;28;20175;-63
2023/06/09 11:37:10;;;;;;;3.72;0.68;;;;;;;22.13;82.58;99221.00;5036584;28;20049;-63
2023/06/09 11:39:39;;;;;;;0.60;0.60;;;;;;;22.27;81.33;99221.91;5036643;28;20042;-63
2023/06/09 11:42:08;;;;;;;1.15;1.05;;;;;;;22.62;80.28;99223.44;5036658;28;20076;-63
2023/06/09 11:44:38;;;;;;;0.52;0.47;;;;;;;23.03;79.33;99209.78;5036327;28;20057;-63
2023/06/09 11:47:24;;;;;;;2.15;1.40;;;;;;;23.34;77.30;99218.28;5036249;28;20052;-63
2023/06/09 11:50:09;;;;;;;1.42;1.13;;;;;;;22.97;75.02;99182.31;5036192;28;20073;-63
2023/06/09 11:52:41;;;;;;;0.60;0.60;;;;;;;23.02;72.88;99218.50;5036216;28;20057;-63